Randsburg, California
Current Conditions -  °F | °C
As of 1:56 PM on Tuesday 25 Nov 2014 (Local Time) from KNID Reporting Station
Clear Clear  
Wind Chill: 67°   Ceiling: Unl
Heat Index: 67°   Visibility: 10mi
Dew Point:   Wind: 0mph
Humidity: 10%   Direction: NA
Pressure: 30.37"   Gusts: NA
Location:  35.37°N, 117.66°W
Report Text: KNID 252156Z 00000KT 10SM CLR 19/M13 A3037 RMK AO2 SLP286 T01941128 $
Loading
Personal Weather Stations






























Interactive Weather Map New forecast layout! Learn more

10-Day Weather Forecast

Advertisements
Track Severe Weather on mobile